Terminal Aerodrome Forecast
Issued by NWS Grand Forks, ND

Home | Current Version | Previous Version | Text Only | Print | Product List | Glossary On
Versions: 1 2 3 4 5 6 7 8 9 10 11 12 13 14 15
000
FTUS43 KFGF 232320
TAFGFK
TAF
KGFK 232320Z 2400/2424 21009KT P6SM SCT080
     FM240100 27008KT P6SM BKN050
     FM240300 27007KT P6SM SCT150
     FM241500 27012KT P6SM FEW250
     FM241700 28015G25KT P6SM FEW050=

USA.gov is the U.S. government's official web portal to all federal, state and local government web resources and services.